sensor_id;sensor_type;location;lat;lon;timestamp;P1;durP1;ratioP1;P2;durP2;ratioP2
20122;SDS011;10222;50.848;4.336;2024-03-08T00:00:50;21.93;;;10.70;;
20122;SDS011;10222;50.848;4.336;2024-03-08T00:03:17;21.83;;;10.77;;
20122;SDS011;10222;50.848;4.336;2024-03-08T00:05:43;19.30;;;10.83;;
20122;SDS011;10222;50.848;4.336;2024-03-08T00:08:09;20.00;;;10.23;;
20122;SDS011;10222;50.848;4.336;2024-03-08T00:10:36;22.07;;;11.00;;
20122;SDS011;10222;50.848;4.336;2024-03-08T00:13:03;18.77;;;10.30;;
20122;SDS011;10222;50.848;4.336;2024-03-08T00:15:30;16.97;;;9.47;;
20122;SDS011;10222;50.848;4.336;2024-03-08T00:17:57;22.73;;;10.83;;
20122;SDS011;10222;50.848;4.336;2024-03-08T00:20:24;17.60;;;9.93;;
20122;SDS011;10222;50.848;4.336;2024-03-08T00:22:50;19.87;;;10.30;;
20122;SDS011;10222;50.848;4.336;2024-03-08T00:25:16;20.63;;;10.53;;
20122;SDS011;10222;50.848;4.336;2024-03-08T00:27:43;18.37;;;9.40;;
20122;SDS011;10222;50.848;4.336;2024-03-08T00:30:09;19.97;;;9.97;;
20122;SDS011;10222;50.848;4.336;2024-03-08T00:32:38;21.10;;;10.27;;
20122;SDS011;10222;50.848;4.336;2024-03-08T00:35:04;20.70;;;10.13;;
20122;SDS011;10222;50.848;4.336;2024-03-08T00:37:32;20.13;;;10.47;;
20122;SDS011;10222;50.848;4.336;2024-03-08T00:39:59;21.50;;;10.73;;
20122;SDS011;10222;50.848;4.336;2024-03-08T00:42:26;20.37;;;9.87;;
20122;SDS011;10222;50.848;4.336;2024-03-08T00:44:52;22.13;;;11.47;;
20122;SDS011;10222;50.848;4.336;2024-03-08T00:47:18;19.30;;;9.57;;
20122;SDS011;10222;50.848;4.336;2024-03-08T00:49:45;24.07;;;11.03;;
20122;SDS011;10222;50.848;4.336;2024-03-08T00:52:11;19.80;;;10.37;;
20122;SDS011;10222;50.848;4.336;2024-03-08T00:54:37;19.20;;;10.10;;
20122;SDS011;10222;50.848;4.336;2024-03-08T00:57:03;25.13;;;10.57;;
20122;SDS011;10222;50.848;4.336;2024-03-08T00:59:29;21.53;;;10.63;;
20122;SDS011;10222;50.848;4.336;2024-03-08T01:01:57;19.67;;;10.80;;
20122;SDS011;10222;50.848;4.336;2024-03-08T01:04:24;22.20;;;10.47;;
20122;SDS011;10222;50.848;4.336;2024-03-08T01:06:50;17.17;;;9.43;;
20122;SDS011;10222;50.848;4.336;2024-03-08T01:09:16;20.63;;;10.97;;
20122;SDS011;10222;50.848;4.336;2024-03-08T01:11:42;25.30;;;11.07;;
20122;SDS011;10222;50.848;4.336;2024-03-08T01:14:09;24.53;;;11.03;;
20122;SDS011;10222;50.848;4.336;2024-03-08T01:16:35;17.83;;;10.53;;
20122;SDS011;10222;50.848;4.336;2024-03-08T01:19:01;21.63;;;10.93;;
20122;SDS011;10222;50.848;4.336;2024-03-08T01:21:29;23.33;;;10.73;;
20122;SDS011;10222;50.848;4.336;2024-03-08T01:23:55;22.17;;;11.07;;
20122;SDS011;10222;50.848;4.336;2024-03-08T01:26:21;23.00;;;11.07;;
20122;SDS011;10222;50.848;4.336;2024-03-08T01:28:47;22.07;;;11.93;;
20122;SDS011;10222;50.848;4.336;2024-03-08T01:31:13;20.63;;;10.67;;
20122;SDS011;10222;50.848;4.336;2024-03-08T01:33:39;28.07;;;11.13;;
20122;SDS011;10222;50.848;4.336;2024-03-08T01:36:05;19.57;;;10.03;;
20122;SDS011;10222;50.848;4.336;2024-03-08T01:38:31;22.87;;;11.60;;
20122;SDS011;10222;50.848;4.336;2024-03-08T01:40:57;22.20;;;11.90;;
20122;SDS011;10222;50.848;4.336;2024-03-08T01:43:27;21.87;;;11.73;;
20122;SDS011;10222;50.848;4.336;2024-03-08T01:45:54;22.07;;;11.67;;
20122;SDS011;10222;50.848;4.336;2024-03-08T01:48:20;22.97;;;11.00;;
20122;SDS011;10222;50.848;4.336;2024-03-08T01:50:49;20.40;;;10.80;;
20122;SDS011;10222;50.848;4.336;2024-03-08T01:53:15;22.57;;;11.17;;
20122;SDS011;10222;50.848;4.336;2024-03-08T01:55:43;21.60;;;11.20;;
20122;SDS011;10222;50.848;4.336;2024-03-08T01:58:11;24.40;;;12.17;;
20122;SDS011;10222;50.848;4.336;2024-03-08T02:00:38;21.90;;;11.83;;
20122;SDS011;10222;50.848;4.336;2024-03-08T02:03:05;25.77;;;11.77;;
20122;SDS011;10222;50.848;4.336;2024-03-08T02:05:31;21.67;;;11.43;;
20122;SDS011;10222;50.848;4.336;2024-03-08T02:07:57;26.07;;;12.40;;
20122;SDS011;10222;50.848;4.336;2024-03-08T02:10:23;23.13;;;11.77;;
20122;SDS011;10222;50.848;4.336;2024-03-08T02:12:49;23.07;;;12.03;;
20122;SDS011;10222;50.848;4.336;2024-03-08T02:15:16;21.93;;;12.17;;
20122;SDS011;10222;50.848;4.336;2024-03-08T02:17:42;24.37;;;12.23;;
20122;SDS011;10222;50.848;4.336;2024-03-08T02:20:08;21.77;;;12.63;;
20122;SDS011;10222;50.848;4.336;2024-03-08T02:22:35;23.30;;;12.23;;
20122;SDS011;10222;50.848;4.336;2024-03-08T02:25:02;21.93;;;11.53;;
20122;SDS011;10222;50.848;4.336;2024-03-08T02:27:28;21.20;;;11.73;;
20122;SDS011;10222;50.848;4.336;2024-03-08T02:29:55;27.03;;;13.13;;
20122;SDS011;10222;50.848;4.336;2024-03-08T02:32:24;25.50;;;12.63;;
20122;SDS011;10222;50.848;4.336;2024-03-08T02:34:50;26.10;;;12.70;;
20122;SDS011;10222;50.848;4.336;2024-03-08T02:37:16;26.20;;;13.30;;
20122;SDS011;10222;50.848;4.336;2024-03-08T02:39:43;26.13;;;13.83;;
20122;SDS011;10222;50.848;4.336;2024-03-08T02:42:10;25.83;;;13.00;;
20122;SDS011;10222;50.848;4.336;2024-03-08T02:44:36;21.83;;;11.90;;
20122;SDS011;10222;50.848;4.336;2024-03-08T02:47:02;22.53;;;12.77;;
20122;SDS011;10222;50.848;4.336;2024-03-08T02:49:29;22.47;;;13.13;;
20122;SDS011;10222;50.848;4.336;2024-03-08T02:51:55;21.77;;;13.07;;
20122;SDS011;10222;50.848;4.336;2024-03-08T02:54:22;24.53;;;13.40;;
20122;SDS011;10222;50.848;4.336;2024-03-08T02:56:49;20.67;;;12.03;;
20122;SDS011;10222;50.848;4.336;2024-03-08T02:59:17;23.90;;;13.37;;
20122;SDS011;10222;50.848;4.336;2024-03-08T03:01:44;24.03;;;13.27;;
20122;SDS011;10222;50.848;4.336;2024-03-08T03:04:10;25.87;;;13.27;;
20122;SDS011;10222;50.848;4.336;2024-03-08T03:06:36;24.63;;;13.50;;
20122;SDS011;10222;50.848;4.336;2024-03-08T03:09:02;27.50;;;13.20;;
20122;SDS011;10222;50.848;4.336;2024-03-08T03:11:31;25.20;;;13.23;;
20122;SDS011;10222;50.848;4.336;2024-03-08T03:13:57;22.47;;;13.07;;
20122;SDS011;10222;50.848;4.336;2024-03-08T03:16:23;23.20;;;13.03;;
20122;SDS011;10222;50.848;4.336;2024-03-08T03:18:49;22.57;;;13.37;;
20122;SDS011;10222;50.848;4.336;2024-03-08T03:21:15;22.70;;;13.20;;
20122;SDS011;10222;50.848;4.336;2024-03-08T03:23:42;26.37;;;13.33;;
20122;SDS011;10222;50.848;4.336;2024-03-08T03:26:08;24.97;;;13.87;;
20122;SDS011;10222;50.848;4.336;2024-03-08T03:28:38;21.77;;;12.97;;
20122;SDS011;10222;50.848;4.336;2024-03-08T03:31:06;22.63;;;12.77;;
20122;SDS011;10222;50.848;4.336;2024-03-08T03:33:32;23.23;;;13.90;;
20122;SDS011;10222;50.848;4.336;2024-03-08T03:35:59;20.63;;;13.53;;
20122;SDS011;10222;50.848;4.336;2024-03-08T03:38:26;25.93;;;13.40;;
20122;SDS011;10222;50.848;4.336;2024-03-08T03:40:53;22.47;;;12.80;;
20122;SDS011;10222;50.848;4.336;2024-03-08T03:43:22;22.73;;;13.80;;
20122;SDS011;10222;50.848;4.336;2024-03-08T03:45:50;27.80;;;14.77;;
20122;SDS011;10222;50.848;4.336;2024-03-08T03:48:16;28.60;;;14.53;;
20122;SDS011;10222;50.848;4.336;2024-03-08T03:50:42;24.47;;;13.23;;
20122;SDS011;10222;50.848;4.336;2024-03-08T03:53:09;26.70;;;14.90;;
20122;SDS011;10222;50.848;4.336;2024-03-08T03:55:35;25.47;;;13.93;;
20122;SDS011;10222;50.848;4.336;2024-03-08T03:58:04;22.47;;;13.37;;
20122;SDS011;10222;50.848;4.336;2024-03-08T04:00:30;24.83;;;14.23;;
20122;SDS011;10222;50.848;4.336;2024-03-08T04:02:57;27.33;;;14.57;;
20122;SDS011;10222;50.848;4.336;2024-03-08T04:05:25;24.70;;;12.97;;
20122;SDS011;10222;50.848;4.336;2024-03-08T04:07:51;29.17;;;14.57;;
20122;SDS011;10222;50.848;4.336;2024-03-08T04:10:17;24.80;;;14.73;;
20122;SDS011;10222;50.848;4.336;2024-03-08T04:12:43;24.10;;;13.57;;
20122;SDS011;10222;50.848;4.336;2024-03-08T04:15:11;28.03;;;13.97;;
20122;SDS011;10222;50.848;4.336;2024-03-08T04:17:37;25.93;;;14.00;;
20122;SDS011;10222;50.848;4.336;2024-03-08T04:20:03;25.13;;;13.87;;
20122;SDS011;10222;50.848;4.336;2024-03-08T04:22:34;23.33;;;13.77;;
20122;SDS011;10222;50.848;4.336;2024-03-08T04:25:01;22.97;;;13.97;;
20122;SDS011;10222;50.848;4.336;2024-03-08T04:27:27;26.40;;;15.27;;
20122;SDS011;10222;50.848;4.336;2024-03-08T04:29:53;23.93;;;13.97;;
20122;SDS011;10222;50.848;4.336;2024-03-08T04:32:19;24.63;;;14.53;;
20122;SDS011;10222;50.848;4.336;2024-03-08T04:34:45;24.57;;;13.63;;
20122;SDS011;10222;50.848;4.336;2024-03-08T04:37:11;27.70;;;15.17;;
20122;SDS011;10222;50.848;4.336;2024-03-08T04:39:39;25.73;;;14.00;;
20122;SDS011;10222;50.848;4.336;2024-03-08T04:42:05;29.03;;;14.40;;
20122;SDS011;10222;50.848;4.336;2024-03-08T04:44:38;23.23;;;13.67;;
20122;SDS011;10222;50.848;4.336;2024-03-08T04:47:05;23.37;;;14.40;;
20122;SDS011;10222;50.848;4.336;2024-03-08T04:49:32;24.87;;;13.93;;
20122;SDS011;10222;50.848;4.336;2024-03-08T04:52:01;26.83;;;14.77;;
20122;SDS011;10222;50.848;4.336;2024-03-08T04:54:28;26.33;;;15.40;;
20122;SDS011;10222;50.848;4.336;2024-03-08T04:56:54;24.50;;;13.90;;
20122;SDS011;10222;50.848;4.336;2024-03-08T04:59:20;26.37;;;15.23;;
20122;SDS011;10222;50.848;4.336;2024-03-08T05:01:46;27.40;;;14.37;;
20122;SDS011;10222;50.848;4.336;2024-03-08T05:04:12;27.27;;;14.37;;
20122;SDS011;10222;50.848;4.336;2024-03-08T05:06:38;24.93;;;14.57;;
20122;SDS011;10222;50.848;4.336;2024-03-08T05:09:04;26.77;;;14.43;;
20122;SDS011;10222;50.848;4.336;2024-03-08T05:11:40;25.93;;;14.00;;
20122;SDS011;10222;50.848;4.336;2024-03-08T05:14:07;29.40;;;14.80;;
20122;SDS011;10222;50.848;4.336;2024-03-08T05:16:33;28.90;;;13.70;;
20122;SDS011;10222;50.848;4.336;2024-03-08T05:19:00;26.63;;;13.90;;
20122;SDS011;10222;50.848;4.336;2024-03-08T05:21:26;29.13;;;15.03;;
20122;SDS011;10222;50.848;4.336;2024-03-08T05:23:53;24.97;;;13.80;;
20122;SDS011;10222;50.848;4.336;2024-03-08T05:26:20;26.50;;;14.23;;
20122;SDS011;10222;50.848;4.336;2024-03-08T05:28:47;23.60;;;13.60;;
20122;SDS011;10222;50.848;4.336;2024-03-08T05:31:23;27.27;;;13.83;;
20122;SDS011;10222;50.848;4.336;2024-03-08T05:33:49;25.47;;;14.33;;
20122;SDS011;10222;50.848;4.336;2024-03-08T05:36:15;31.17;;;15.23;;
20122;SDS011;10222;50.848;4.336;2024-03-08T05:38:45;27.70;;;15.23;;
20122;SDS011;10222;50.848;4.336;2024-03-08T05:41:12;25.70;;;13.83;;
20122;SDS011;10222;50.848;4.336;2024-03-08T05:43:38;29.53;;;13.67;;
20122;SDS011;10222;50.848;4.336;2024-03-08T05:46:05;26.07;;;14.20;;
20122;SDS011;10222;50.848;4.336;2024-03-08T05:48:31;25.83;;;14.87;;
20122;SDS011;10222;50.848;4.336;2024-03-08T05:50:57;24.93;;;14.23;;
20122;SDS011;10222;50.848;4.336;2024-03-08T05:53:23;21.23;;;12.97;;
20122;SDS011;10222;50.848;4.336;2024-03-08T05:55:49;26.53;;;14.67;;
20122;SDS011;10222;50.848;4.336;2024-03-08T05:58:15;28.97;;;13.73;;
20122;SDS011;10222;50.848;4.336;2024-03-08T06:00:41;27.17;;;13.33;;
20122;SDS011;10222;50.848;4.336;2024-03-08T06:03:07;24.17;;;13.70;;
20122;SDS011;10222;50.848;4.336;2024-03-08T06:05:34;26.07;;;15.00;;
20122;SDS011;10222;50.848;4.336;2024-03-08T06:08:00;25.13;;;15.03;;
20122;SDS011;10222;50.848;4.336;2024-03-08T06:10:26;27.00;;;13.73;;
20122;SDS011;10222;50.848;4.336;2024-03-08T06:12:52;21.50;;;13.17;;
20122;SDS011;10222;50.848;4.336;2024-03-08T06:15:19;28.10;;;14.57;;
20122;SDS011;10222;50.848;4.336;2024-03-08T06:17:46;26.73;;;14.17;;
20122;SDS011;10222;50.848;4.336;2024-03-08T06:20:12;26.50;;;14.13;;
20122;SDS011;10222;50.848;4.336;2024-03-08T06:22:39;29.77;;;16.07;;
20122;SDS011;10222;50.848;4.336;2024-03-08T06:25:09;26.50;;;13.70;;
20122;SDS011;10222;50.848;4.336;2024-03-08T06:27:38;26.53;;;13.60;;
20122;SDS011;10222;50.848;4.336;2024-03-08T06:30:05;26.40;;;14.23;;
20122;SDS011;10222;50.848;4.336;2024-03-08T06:32:31;26.33;;;14.63;;
20122;SDS011;10222;50.848;4.336;2024-03-08T06:35:00;30.00;;;14.80;;
20122;SDS011;10222;50.848;4.336;2024-03-08T06:37:27;27.50;;;14.17;;
20122;SDS011;10222;50.848;4.336;2024-03-08T06:39:54;25.33;;;15.00;;
20122;SDS011;10222;50.848;4.336;2024-03-08T06:42:20;25.37;;;13.50;;
20122;SDS011;10222;50.848;4.336;2024-03-08T06:44:46;26.90;;;13.20;;
20122;SDS011;10222;50.848;4.336;2024-03-08T06:47:15;24.20;;;13.73;;
20122;SDS011;10222;50.848;4.336;2024-03-08T06:49:45;29.20;;;14.47;;
20122;SDS011;10222;50.848;4.336;2024-03-08T06:52:11;24.47;;;14.03;;
20122;SDS011;10222;50.848;4.336;2024-03-08T06:54:37;27.47;;;14.73;;
20122;SDS011;10222;50.848;4.336;2024-03-08T06:57:03;28.10;;;15.43;;
20122;SDS011;10222;50.848;4.336;2024-03-08T06:59:30;23.67;;;14.17;;
20122;SDS011;10222;50.848;4.336;2024-03-08T07:01:56;27.80;;;13.53;;
20122;SDS011;10222;50.848;4.336;2024-03-08T07:04:22;26.33;;;13.80;;
20122;SDS011;10222;50.848;4.336;2024-03-08T07:06:51;27.47;;;14.90;;
20122;SDS011;10222;50.848;4.336;2024-03-08T07:09:17;27.53;;;14.37;;
20122;SDS011;10222;50.848;4.336;2024-03-08T07:11:43;29.53;;;14.33;;
20122;SDS011;10222;50.848;4.336;2024-03-08T07:14:10;24.87;;;13.87;;
20122;SDS011;10222;50.848;4.336;2024-03-08T07:16:37;26.40;;;14.00;;
20122;SDS011;10222;50.848;4.336;2024-03-08T07:19:04;31.43;;;15.13;;
20122;SDS011;10222;50.848;4.336;2024-03-08T07:21:30;23.57;;;14.37;;
20122;SDS011;10222;50.848;4.336;2024-03-08T07:23:56;25.77;;;13.43;;
20122;SDS011;10222;50.848;4.336;2024-03-08T07:26:25;27.40;;;14.53;;
20122;SDS011;10222;50.848;4.336;2024-03-08T07:28:55;27.87;;;14.73;;
20122;SDS011;10222;50.848;4.336;2024-03-08T07:31:21;31.23;;;14.83;;
20122;SDS011;10222;50.848;4.336;2024-03-08T07:33:50;25.67;;;14.30;;
20122;SDS011;10222;50.848;4.336;2024-03-08T07:36:18;26.13;;;14.30;;
20122;SDS011;10222;50.848;4.336;2024-03-08T07:38:44;26.27;;;13.30;;
20122;SDS011;10222;50.848;4.336;2024-03-08T07:41:13;25.77;;;12.67;;
20122;SDS011;10222;50.848;4.336;2024-03-08T07:43:41;24.33;;;13.30;;
20122;SDS011;10222;50.848;4.336;2024-03-08T07:46:07;29.20;;;14.17;;
20122;SDS011;10222;50.848;4.336;2024-03-08T07:48:35;23.73;;;13.33;;
20122;SDS011;10222;50.848;4.336;2024-03-08T07:51:01;25.73;;;14.67;;
20122;SDS011;10222;50.848;4.336;2024-03-08T07:53:30;22.33;;;13.67;;
20122;SDS011;10222;50.848;4.336;2024-03-08T07:55:56;23.77;;;14.00;;
20122;SDS011;10222;50.848;4.336;2024-03-08T07:58:22;25.20;;;13.43;;
20122;SDS011;10222;50.848;4.336;2024-03-08T08:00:48;30.70;;;16.67;;
20122;SDS011;10222;50.848;4.336;2024-03-08T08:03:14;27.77;;;14.23;;
20122;SDS011;10222;50.848;4.336;2024-03-08T08:05:41;25.10;;;13.70;;
20122;SDS011;10222;50.848;4.336;2024-03-08T08:08:07;26.57;;;13.83;;
20122;SDS011;10222;50.848;4.336;2024-03-08T08:10:35;22.13;;;12.93;;
20122;SDS011;10222;50.848;4.336;2024-03-08T08:13:02;24.87;;;13.73;;
20122;SDS011;10222;50.848;4.336;2024-03-08T08:15:32;24.97;;;13.50;;
20122;SDS011;10222;50.848;4.336;2024-03-08T08:18:01;25.50;;;13.77;;
20122;SDS011;10222;50.848;4.336;2024-03-08T08:20:30;26.40;;;14.73;;
20122;SDS011;10222;50.848;4.336;2024-03-08T08:22:56;27.97;;;13.87;;
20122;SDS011;10222;50.848;4.336;2024-03-08T08:25:24;25.20;;;13.57;;
20122;SDS011;10222;50.848;4.336;2024-03-08T08:27:50;24.50;;;13.37;;
20122;SDS011;10222;50.848;4.336;2024-03-08T08:30:16;27.27;;;13.23;;
20122;SDS011;10222;50.848;4.336;2024-03-08T08:32:42;28.70;;;14.10;;
20122;SDS011;10222;50.848;4.336;2024-03-08T08:35:10;25.07;;;13.20;;
20122;SDS011;10222;50.848;4.336;2024-03-08T08:37:41;26.43;;;13.80;;
20122;SDS011;10222;50.848;4.336;2024-03-08T08:40:08;32.07;;;14.53;;
20122;SDS011;10222;50.848;4.336;2024-03-08T08:42:38;25.40;;;12.93;;
20122;SDS011;10222;50.848;4.336;2024-03-08T08:45:07;23.97;;;11.87;;
20122;SDS011;10222;50.848;4.336;2024-03-08T08:47:34;27.97;;;13.37;;
20122;SDS011;10222;50.848;4.336;2024-03-08T08:50:01;26.83;;;14.53;;
20122;SDS011;10222;50.848;4.336;2024-03-08T08:52:27;29.50;;;13.37;;
20122;SDS011;10222;50.848;4.336;2024-03-08T08:54:54;24.40;;;13.57;;
20122;SDS011;10222;50.848;4.336;2024-03-08T08:57:20;26.67;;;12.80;;
20122;SDS011;10222;50.848;4.336;2024-03-08T08:59:46;24.97;;;12.33;;
20122;SDS011;10222;50.848;4.336;2024-03-08T09:02:12;26.87;;;14.33;;
20122;SDS011;10222;50.848;4.336;2024-03-08T09:04:42;27.70;;;13.47;;
20122;SDS011;10222;50.848;4.336;2024-03-08T09:07:09;23.20;;;12.90;;
20122;SDS011;10222;50.848;4.336;2024-03-08T09:09:35;25.57;;;13.07;;
20122;SDS011;10222;50.848;4.336;2024-03-08T09:12:01;28.17;;;13.03;;
20122;SDS011;10222;50.848;4.336;2024-03-08T09:14:27;29.53;;;13.40;;
20122;SDS011;10222;50.848;4.336;2024-03-08T09:16:54;26.37;;;12.43;;
20122;SDS011;10222;50.848;4.336;2024-03-08T09:19:21;24.47;;;11.97;;
20122;SDS011;10222;50.848;4.336;2024-03-08T09:21:50;22.40;;;11.83;;
20122;SDS011;10222;50.848;4.336;2024-03-08T09:24:16;25.73;;;12.93;;
20122;SDS011;10222;50.848;4.336;2024-03-08T09:26:42;23.57;;;12.10;;
20122;SDS011;10222;50.848;4.336;2024-03-08T09:29:09;24.77;;;13.37;;
20122;SDS011;10222;50.848;4.336;2024-03-08T09:31:36;23.17;;;13.13;;
20122;SDS011;10222;50.848;4.336;2024-03-08T09:34:05;24.00;;;12.50;;
20122;SDS011;10222;50.848;4.336;2024-03-08T09:36:33;21.67;;;12.13;;
20122;SDS011;10222;50.848;4.336;2024-03-08T09:38:59;24.63;;;11.67;;
20122;SDS011;10222;50.848;4.336;2024-03-08T09:41:25;23.60;;;11.70;;
20122;SDS011;10222;50.848;4.336;2024-03-08T09:43:52;21.73;;;12.13;;
20122;SDS011;10222;50.848;4.336;2024-03-08T09:46:18;20.43;;;11.33;;
20122;SDS011;10222;50.848;4.336;2024-03-08T09:48:45;20.67;;;12.37;;
20122;SDS011;10222;50.848;4.336;2024-03-08T09:51:12;21.90;;;11.60;;
20122;SDS011;10222;50.848;4.336;2024-03-08T09:53:40;22.20;;;12.63;;
20122;SDS011;10222;50.848;4.336;2024-03-08T09:56:09;23.97;;;12.63;;
20122;SDS011;10222;50.848;4.336;2024-03-08T09:58:37;20.33;;;11.70;;
20122;SDS011;10222;50.848;4.336;2024-03-08T10:01:18;21.00;;;10.87;;
20122;SDS011;10222;50.848;4.336;2024-03-08T10:03:46;21.87;;;11.97;;
20122;SDS011;10222;50.848;4.336;2024-03-08T10:06:14;25.77;;;12.07;;
20122;SDS011;10222;50.848;4.336;2024-03-08T10:08:41;21.20;;;10.67;;
20122;SDS011;10222;50.848;4.336;2024-03-08T10:11:07;19.33;;;10.67;;
20122;SDS011;10222;50.848;4.336;2024-03-08T10:13:33;20.13;;;11.37;;
20122;SDS011;10222;50.848;4.336;2024-03-08T10:16:00;20.30;;;11.87;;
20122;SDS011;10222;50.848;4.336;2024-03-08T10:18:26;20.70;;;11.37;;
20122;SDS011;10222;50.848;4.336;2024-03-08T10:21:02;22.60;;;11.60;;
20122;SDS011;10222;50.848;4.336;2024-03-08T10:23:29;20.57;;;10.97;;
20122;SDS011;10222;50.848;4.336;2024-03-08T10:25:55;22.20;;;11.70;;
20122;SDS011;10222;50.848;4.336;2024-03-08T10:28:23;20.43;;;11.73;;
20122;SDS011;10222;50.848;4.336;2024-03-08T10:30:50;21.80;;;10.67;;
20122;SDS011;10222;50.848;4.336;2024-03-08T10:33:16;20.03;;;11.53;;
20122;SDS011;10222;50.848;4.336;2024-03-08T10:35:43;21.27;;;11.33;;
20122;SDS011;10222;50.848;4.336;2024-03-08T10:38:09;25.60;;;11.87;;
20122;SDS011;10222;50.848;4.336;2024-03-08T10:40:37;18.70;;;10.53;;
20122;SDS011;10222;50.848;4.336;2024-03-08T10:43:05;22.07;;;11.07;;
20122;SDS011;10222;50.848;4.336;2024-03-08T10:45:37;19.63;;;11.10;;
20122;SDS011;10222;50.848;4.336;2024-03-08T10:48:26;23.73;;;11.43;;
20122;SDS011;10222;50.848;4.336;2024-03-08T10:50:57;19.40;;;10.63;;
20122;SDS011;10222;50.848;4.336;2024-03-08T10:53:23;22.30;;;11.43;;
20122;SDS011;10222;50.848;4.336;2024-03-08T10:55:49;19.97;;;10.47;;
20122;SDS011;10222;50.848;4.336;2024-03-08T10:58:18;17.33;;;10.30;;
20122;SDS011;10222;50.848;4.336;2024-03-08T11:00:45;21.87;;;11.87;;
20122;SDS011;10222;50.848;4.336;2024-03-08T11:05:56;17.33;;;10.20;;
20122;SDS011;10222;50.848;4.336;2024-03-08T11:08:22;17.87;;;10.47;;
20122;SDS011;10222;50.848;4.336;2024-03-08T11:10:52;20.70;;;11.03;;
20122;SDS011;10222;50.848;4.336;2024-03-08T11:13:37;19.20;;;10.47;;
20122;SDS011;10222;50.848;4.336;2024-03-08T11:16:12;21.30;;;11.07;;
20122;SDS011;10222;50.848;4.336;2024-03-08T11:18:41;21.87;;;11.60;;
20122;SDS011;10222;50.848;4.336;2024-03-08T11:21:10;22.57;;;10.90;;
20122;SDS011;10222;50.848;4.336;2024-03-08T11:23:37;18.37;;;10.73;;
20122;SDS011;10222;50.848;4.336;2024-03-08T11:26:16;19.27;;;11.13;;
20122;SDS011;10222;50.848;4.336;2024-03-08T11:28:43;20.27;;;11.00;;
20122;SDS011;10222;50.848;4.336;2024-03-08T11:33:35;20.60;;;11.07;;
20122;SDS011;10222;50.848;4.336;2024-03-08T11:36:10;21.80;;;10.63;;
20122;SDS011;10222;50.848;4.336;2024-03-08T11:38:41;20.13;;;11.10;;
20122;SDS011;10222;50.848;4.336;2024-03-08T11:41:09;18.90;;;10.70;;
20122;SDS011;10222;50.848;4.336;2024-03-08T11:43:39;23.13;;;11.57;;
20122;SDS011;10222;50.848;4.336;2024-03-08T11:46:10;20.37;;;11.33;;
20122;SDS011;10222;50.848;4.336;2024-03-08T11:48:39;20.63;;;11.60;;
20122;SDS011;10222;50.848;4.336;2024-03-08T11:51:10;19.97;;;11.10;;
20122;SDS011;10222;50.848;4.336;2024-03-08T11:53:38;18.27;;;10.97;;
20122;SDS011;10222;50.848;4.336;2024-03-08T11:58:33;20.60;;;10.73;;
20122;SDS011;10222;50.848;4.336;2024-03-08T12:01:02;20.53;;;11.37;;
20122;SDS011;10222;50.848;4.336;2024-03-08T12:03:29;18.67;;;10.90;;
20122;SDS011;10222;50.848;4.336;2024-03-08T12:05:58;19.43;;;10.67;;
20122;SDS011;10222;50.848;4.336;2024-03-08T12:08:26;17.00;;;10.30;;
20122;SDS011;10222;50.848;4.336;2024-03-08T12:10:55;21.00;;;11.30;;
20122;SDS011;10222;50.848;4.336;2024-03-08T12:13:25;20.73;;;10.60;;
20122;SDS011;10222;50.848;4.336;2024-03-08T12:15:54;17.07;;;10.37;;
20122;SDS011;10222;50.848;4.336;2024-03-08T12:18:20;22.37;;;11.50;;
20122;SDS011;10222;50.848;4.336;2024-03-08T12:20:46;18.00;;;10.23;;
20122;SDS011;10222;50.848;4.336;2024-03-08T12:23:15;25.77;;;11.67;;
20122;SDS011;10222;50.848;4.336;2024-03-08T12:25:42;24.27;;;11.50;;
20122;SDS011;10222;50.848;4.336;2024-03-08T12:28:10;18.77;;;11.13;;
20122;SDS011;10222;50.848;4.336;2024-03-08T12:30:50;19.57;;;10.70;;
20122;SDS011;10222;50.848;4.336;2024-03-08T12:33:18;19.33;;;10.80;;
20122;SDS011;10222;50.848;4.336;2024-03-08T12:35:50;20.07;;;11.13;;
20122;SDS011;10222;50.848;4.336;2024-03-08T12:38:18;17.97;;;10.83;;
20122;SDS011;10222;50.848;4.336;2024-03-08T12:40:45;21.63;;;10.80;;
20122;SDS011;10222;50.848;4.336;2024-03-08T12:43:10;20.17;;;10.80;;
20122;SDS011;10222;50.848;4.336;2024-03-08T12:45:37;18.97;;;10.70;;
20122;SDS011;10222;50.848;4.336;2024-03-08T12:48:03;17.53;;;10.47;;
20122;SDS011;10222;50.848;4.336;2024-03-08T12:50:39;17.43;;;10.27;;
20122;SDS011;10222;50.848;4.336;2024-03-08T12:53:05;18.60;;;10.03;;
20122;SDS011;10222;50.848;4.336;2024-03-08T12:55:31;19.67;;;10.80;;
20122;SDS011;10222;50.848;4.336;2024-03-08T12:57:58;21.30;;;10.97;;
20122;SDS011;10222;50.848;4.336;2024-03-08T13:00:26;19.50;;;10.83;;
20122;SDS011;10222;50.848;4.336;2024-03-08T13:02:53;18.50;;;10.87;;
20122;SDS011;10222;50.848;4.336;2024-03-08T13:05:20;19.83;;;10.73;;
20122;SDS011;10222;50.848;4.336;2024-03-08T13:07:47;20.03;;;10.43;;
20122;SDS011;10222;50.848;4.336;2024-03-08T13:10:16;17.73;;;9.83;;
20122;SDS011;10222;50.848;4.336;2024-03-08T13:12:44;16.50;;;9.67;;
20122;SDS011;10222;50.848;4.336;2024-03-08T13:15:10;20.03;;;10.83;;
20122;SDS011;10222;50.848;4.336;2024-03-08T13:17:40;17.23;;;10.37;;
20122;SDS011;10222;50.848;4.336;2024-03-08T13:20:07;16.70;;;9.80;;
20122;SDS011;10222;50.848;4.336;2024-03-08T13:22:35;17.47;;;10.07;;
20122;SDS011;10222;50.848;4.336;2024-03-08T13:25:01;18.37;;;10.33;;
20122;SDS011;10222;50.848;4.336;2024-03-08T13:27:28;19.07;;;9.93;;
20122;SDS011;10222;50.848;4.336;2024-03-08T13:29:54;20.70;;;10.83;;
20122;SDS011;10222;50.848;4.336;2024-03-08T13:32:20;16.50;;;10.67;;
20122;SDS011;10222;50.848;4.336;2024-03-08T13:34:47;16.73;;;10.20;;
20122;SDS011;10222;50.848;4.336;2024-03-08T13:37:13;19.67;;;10.47;;
20122;SDS011;10222;50.848;4.336;2024-03-08T13:39:41;18.60;;;9.83;;
20122;SDS011;10222;50.848;4.336;2024-03-08T13:42:12;15.23;;;8.97;;
20122;SDS011;10222;50.848;4.336;2024-03-08T13:44:45;15.37;;;9.80;;
20122;SDS011;10222;50.848;4.336;2024-03-08T13:47:12;16.83;;;10.70;;
20122;SDS011;10222;50.848;4.336;2024-03-08T13:49:39;15.50;;;9.67;;
20122;SDS011;10222;50.848;4.336;2024-03-08T13:52:05;15.97;;;9.07;;
20122;SDS011;10222;50.848;4.336;2024-03-08T13:54:33;18.10;;;10.30;;
20122;SDS011;10222;50.848;4.336;2024-03-08T13:57:01;16.93;;;9.60;;
20122;SDS011;10222;50.848;4.336;2024-03-08T13:59:32;18.30;;;9.70;;
20122;SDS011;10222;50.848;4.336;2024-03-08T14:01:59;18.13;;;9.43;;
20122;SDS011;10222;50.848;4.336;2024-03-08T14:04:27;15.50;;;9.73;;
20122;SDS011;10222;50.848;4.336;2024-03-08T14:06:53;19.70;;;10.40;;
20122;SDS011;10222;50.848;4.336;2024-03-08T14:09:28;16.93;;;10.00;;
20122;SDS011;10222;50.848;4.336;2024-03-08T14:11:55;17.27;;;10.23;;
20122;SDS011;10222;50.848;4.336;2024-03-08T14:14:21;17.20;;;10.10;;
20122;SDS011;10222;50.848;4.336;2024-03-08T14:16:49;16.43;;;9.17;;
20122;SDS011;10222;50.848;4.336;2024-03-08T14:19:19;17.60;;;9.83;;
20122;SDS011;10222;50.848;4.336;2024-03-08T14:21:46;18.23;;;9.80;;
20122;SDS011;10222;50.848;4.336;2024-03-08T14:24:18;16.70;;;9.77;;
20122;SDS011;10222;50.848;4.336;2024-03-08T14:26:44;19.03;;;10.23;;
20122;SDS011;10222;50.848;4.336;2024-03-08T14:29:11;15.33;;;9.27;;
20122;SDS011;10222;50.848;4.336;2024-03-08T14:31:37;14.87;;;8.90;;